createdAt,value
2019-03-31T00:00:34.142Z,47.77
2019-03-31T00:01:34.150Z,47.77
2019-03-31T00:02:34.119Z,47.77
2019-03-31T00:03:34.120Z,47.90
2019-03-31T00:04:34.204Z,47.90
2019-03-31T00:05:37.112Z,47.90
2019-03-31T00:06:34.079Z,47.88
2019-03-31T00:07:34.069Z,47.90
2019-03-31T00:08:34.093Z,47.90
2019-03-31T00:09:34.056Z,47.90
2019-03-31T00:10:34.037Z,47.90
2019-03-31T00:11:34.030Z,47.90
2019-03-31T00:12:34.019Z,47.90
2019-03-31T00:13:34.006Z,47.90
2019-03-31T00:14:34.018Z,47.90
2019-03-31T00:15:33.991Z,47.90
2019-03-31T00:16:33.976Z,47.90
2019-03-31T00:17:33.965Z,47.90
2019-03-31T00:18:33.951Z,48.00
2019-03-31T00:19:33.971Z,48.00
2019-03-31T00:20:33.939Z,48.00
2019-03-31T00:21:33.919Z,48.00
2019-03-31T00:22:33.913Z,48.00
2019-03-31T00:23:33.902Z,48.00
2019-03-31T00:24:33.927Z,48.00
2019-03-31T00:25:33.876Z,48.00
2019-03-31T00:26:33.875Z,48.00
2019-03-31T00:27:34.075Z,48.00
2019-03-31T00:28:33.856Z,48.00
2019-03-31T00:29:33.858Z,48.00
2019-03-31T00:30:33.828Z,48.00
2019-03-31T00:31:33.826Z,48.00
2019-03-31T00:32:33.817Z,48.00
2019-03-31T00:33:33.824Z,48.00
2019-03-31T00:34:33.790Z,48.00
2019-03-31T00:35:33.773Z,48.00
2019-03-31T00:36:33.771Z,48.00
2019-03-31T00:37:33.763Z,48.00
2019-03-31T00:38:33.774Z,48.00
2019-03-31T00:39:33.732Z,48.00
2019-03-31T00:40:33.718Z,48.00
2019-03-31T00:41:33.708Z,48.00
2019-03-31T00:42:33.709Z,48.00
2019-03-31T00:43:33.695Z,48.00
2019-03-31T00:44:33.696Z,48.00
2019-03-31T00:45:33.663Z,48.00
2019-03-31T00:46:33.654Z,48.00
2019-03-31T00:47:33.649Z,48.00
2019-03-31T00:48:33.639Z,48.00
2019-03-31T00:49:33.645Z,48.00
2019-03-31T00:50:33.618Z,48.00
2019-03-31T00:51:33.604Z,48.00
2019-03-31T00:52:33.604Z,48.00
2019-03-31T00:53:33.583Z,48.00
2019-03-31T00:54:33.599Z,48.00
2019-03-31T00:55:33.562Z,48.00
2019-03-31T00:56:33.557Z,48.00
2019-03-31T00:57:33.545Z,48.00
2019-03-31T00:58:33.630Z,48.00
2019-03-31T00:59:33.515Z,48.00
2019-03-31T01:00:33.527Z,48.00
2019-03-31T01:01:36.840Z,48.00
2019-03-31T01:02:33.516Z,48.00
2019-03-31T01:03:33.474Z,48.00
2019-03-31T01:04:33.484Z,48.00
2019-03-31T01:05:33.478Z,48.00
2019-03-31T01:06:33.449Z,48.00
2019-03-31T01:07:33.455Z,48.00
2019-03-31T01:08:33.428Z,48.00
2019-03-31T01:09:33.410Z,48.00
2019-03-31T01:10:33.402Z,48.00
2019-03-31T01:11:33.417Z,48.00
2019-03-31T01:12:33.381Z,48.00
2019-03-31T01:13:33.373Z,48.00
2019-03-31T01:14:33.365Z,48.00
2019-03-31T01:15:33.374Z,48.00
2019-03-31T01:16:33.341Z,48.00
2019-03-31T01:17:33.353Z,48.00
2019-03-31T01:18:33.318Z,48.00
2019-03-31T01:19:33.309Z,47.90
2019-03-31T01:20:33.294Z,47.90
2019-03-31T01:21:33.298Z,47.90
2019-03-31T01:22:33.300Z,47.90
2019-03-31T01:23:33.267Z,47.90
2019-03-31T01:24:33.262Z,47.90
2019-03-31T01:25:33.268Z,47.90
2019-03-31T01:26:33.238Z,47.90
2019-03-31T01:27:33.226Z,47.90
2019-03-31T01:28:33.223Z,47.90
2019-03-31T01:29:33.202Z,47.90
2019-03-31T01:30:33.227Z,47.90
2019-03-31T01:31:33.183Z,47.90
2019-03-31T01:32:33.377Z,47.90
2019-03-31T01:33:33.164Z,47.90
2019-03-31T01:34:33.150Z,47.90
2019-03-31T01:35:33.135Z,47.90
2019-03-31T01:36:33.126Z,47.90
2019-03-31T01:37:33.120Z,47.90
2019-03-31T01:38:33.149Z,47.90
2019-03-31T01:39:33.107Z,47.90
2019-03-31T01:40:33.105Z,47.90
2019-03-31T01:41:33.073Z,47.90
2019-03-31T01:42:33.071Z,47.90
2019-03-31T01:43:33.059Z,47.90
2019-03-31T01:44:33.044Z,47.90
2019-03-31T01:45:33.055Z,47.90
2019-03-31T01:46:33.020Z,47.90
2019-03-31T01:47:33.016Z,47.90
2019-03-31T01:48:33.016Z,47.90
2019-03-31T01:49:32.992Z,47.90
2019-03-31T01:50:33.014Z,47.90
2019-03-31T01:51:32.974Z,47.90
2019-03-31T01:52:32.959Z,47.90
2019-03-31T01:53:32.951Z,47.90
2019-03-31T01:54:32.943Z,47.90
2019-03-31T01:55:32.928Z,47.90
2019-03-31T01:56:32.943Z,47.90
2019-03-31T01:57:32.918Z,47.90
2019-03-31T01:58:32.900Z,47.90
2019-03-31T01:59:32.883Z,47.90
2019-03-31T02:00:32.883Z,47.90
2019-03-31T02:01:32.903Z,47.90
2019-03-31T02:02:32.854Z,47.90
2019-03-31T02:03:32.842Z,47.90
2019-03-31T02:04:32.829Z,47.90
2019-03-31T02:05:32.872Z,47.90
2019-03-31T02:06:32.813Z,47.90
2019-03-31T02:07:32.803Z,47.90
2019-03-31T02:08:32.790Z,47.90
2019-03-31T02:09:32.781Z,47.90
2019-03-31T02:10:32.871Z,47.90
2019-03-31T02:11:32.781Z,47.90
2019-03-31T02:12:32.752Z,47.90
2019-03-31T02:13:32.740Z,47.90
2019-03-31T02:14:32.733Z,47.90
2019-03-31T02:15:32.728Z,47.90
2019-03-31T02:16:32.731Z,47.90
2019-03-31T02:17:32.702Z,47.90
2019-03-31T02:18:32.720Z,47.90
2019-03-31T02:19:32.673Z,47.90
2019-03-31T02:20:32.659Z,47.90
2019-03-31T02:21:32.666Z,47.90
2019-03-31T02:22:32.646Z,47.90
2019-03-31T02:23:32.633Z,47.90
2019-03-31T02:24:32.683Z,47.90
2019-03-31T02:25:32.612Z,47.90
2019-03-31T02:26:32.597Z,47.90
2019-03-31T02:27:32.591Z,47.90
2019-03-31T02:28:32.576Z,47.90
2019-03-31T02:29:32.776Z,47.90
2019-03-31T02:30:32.555Z,47.90
2019-03-31T02:31:32.548Z,47.90
2019-03-31T02:32:32.543Z,47.90
2019-03-31T02:33:32.524Z,47.90
2019-03-31T02:34:32.533Z,47.90
2019-03-31T02:35:32.534Z,47.90
2019-03-31T02:36:32.499Z,47.90
2019-03-31T02:37:32.499Z,47.90
2019-03-31T02:38:32.473Z,47.90
2019-03-31T02:39:32.472Z,47.90
2019-03-31T02:40:32.480Z,47.90
2019-03-31T02:41:32.444Z,47.90
2019-03-31T02:42:32.439Z,47.90
2019-03-31T02:43:32.430Z,47.90
2019-03-31T02:44:32.427Z,47.90
2019-03-31T02:45:32.408Z,47.90
2019-03-31T02:46:32.429Z,47.90
2019-03-31T02:47:32.383Z,47.90
2019-03-31T02:48:32.379Z,48.00
2019-03-31T02:49:32.361Z,48.00
2019-03-31T02:50:32.355Z,48.00
2019-03-31T02:51:32.358Z,47.90
2019-03-31T02:52:32.347Z,47.90
2019-03-31T02:53:32.315Z,47.90
2019-03-31T02:54:32.311Z,47.90
2019-03-31T02:55:32.295Z,47.90
2019-03-31T02:56:32.285Z,47.90
2019-03-31T02:57:32.310Z,48.00
2019-03-31T02:58:32.280Z,48.00
2019-03-31T02:59:32.253Z,47.90
2019-03-31T03:00:32.246Z,47.90
2019-03-31T03:01:32.245Z,47.90
2019-03-31T03:02:41.654Z,47.90
2019-03-31T03:03:33.236Z,47.90
2019-03-31T03:04:32.206Z,47.90
2019-03-31T03:05:32.190Z,48.00
2019-03-31T03:06:32.196Z,47.90
2019-03-31T03:07:32.175Z,47.90
2019-03-31T03:08:32.185Z,47.90
2019-03-31T03:09:32.157Z,48.00
2019-03-31T03:10:32.144Z,48.00
2019-03-31T03:11:32.131Z,48.00
2019-03-31T03:12:32.153Z,48.00
2019-03-31T03:13:32.109Z,48.00
2019-03-31T03:14:32.105Z,48.00
2019-03-31T03:15:32.088Z,48.00
2019-03-31T03:16:32.082Z,48.00
2019-03-31T03:17:32.092Z,48.00
2019-03-31T03:18:32.075Z,48.00
2019-03-31T03:19:32.070Z,48.00
2019-03-31T03:20:32.035Z,48.00
2019-03-31T03:21:32.032Z,48.00
2019-03-31T03:22:32.020Z,48.00
2019-03-31T03:23:32.028Z,48.00
2019-03-31T03:24:32.018Z,48.00
2019-03-31T03:25:31.978Z,48.00
2019-03-31T03:26:31.972Z,48.00
2019-03-31T03:27:31.964Z,48.00
2019-03-31T03:28:31.954Z,48.00
2019-03-31T03:29:32.160Z,48.00
2019-03-31T03:30:32.088Z,48.00
2019-03-31T03:31:31.920Z,48.00
2019-03-31T03:32:31.925Z,48.00
2019-03-31T03:33:32.174Z,48.00
2019-03-31T03:34:31.884Z,48.00
2019-03-31T03:35:31.892Z,48.00
2019-03-31T03:36:31.865Z,48.00
2019-03-31T03:37:31.851Z,48.00
2019-03-31T03:38:31.850Z,48.00
2019-03-31T03:39:31.837Z,48.00
2019-03-31T03:40:31.860Z,48.00
2019-03-31T03:41:31.810Z,48.00
2019-03-31T03:42:31.801Z,48.00
2019-03-31T03:43:31.788Z,48.00
2019-03-31T03:44:31.780Z,48.00
2019-03-31T03:45:31.776Z,48.00
2019-03-31T03:46:31.784Z,48.00
2019-03-31T03:47:31.753Z,48.00
2019-03-31T03:48:31.735Z,48.00
2019-03-31T03:49:31.733Z,48.00
2019-03-31T03:50:31.719Z,48.00
2019-03-31T03:51:31.728Z,48.00
2019-03-31T03:52:31.699Z,48.00
2019-03-31T03:53:31.719Z,48.00
2019-03-31T03:54:31.682Z,48.00
2019-03-31T03:55:31.666Z,48.00
2019-03-31T03:56:31.656Z,48.00
2019-03-31T03:57:31.669Z,48.00
2019-03-31T03:58:31.630Z,48.00
2019-03-31T03:59:31.626Z,48.00
2019-03-31T04:00:31.632Z,48.00
2019-03-31T04:01:31.605Z,48.00
2019-03-31T04:02:31.615Z,48.00
2019-03-31T04:03:31.586Z,48.00
2019-03-31T04:04:31.569Z,48.00
2019-03-31T04:05:31.563Z,48.00
2019-03-31T04:06:31.765Z,48.00
2019-03-31T04:07:31.537Z,48.00
2019-03-31T04:08:31.525Z,48.00
2019-03-31T04:09:31.517Z,48.00
2019-03-31T04:10:31.524Z,48.00
2019-03-31T04:11:31.506Z,48.00
2019-03-31T04:12:31.521Z,48.10
2019-03-31T04:13:31.496Z,48.00
2019-03-31T04:14:31.469Z,48.00
2019-03-31T04:15:31.451Z,48.00
2019-03-31T04:16:31.454Z,48.00
2019-03-31T04:17:31.462Z,48.00
2019-03-31T04:18:31.434Z,48.00
2019-03-31T04:19:31.422Z,48.00
2019-03-31T04:20:31.406Z,48.00
2019-03-31T04:21:31.394Z,48.00
2019-03-31T04:22:31.383Z,48.00
2019-03-31T04:23:31.389Z,48.00
2019-03-31T04:24:31.366Z,48.00
2019-03-31T04:25:31.357Z,47.90
2019-03-31T04:26:31.347Z,47.90
2019-03-31T04:27:31.332Z,47.90
2019-03-31T04:28:31.346Z,47.77
2019-03-31T04:29:31.335Z,47.77
2019-03-31T04:30:31.302Z,47.77
2019-03-31T04:31:31.297Z,47.67
2019-03-31T04:32:31.305Z,47.67
2019-03-31T04:33:49.771Z,47.67
2019-03-31T04:34:32.280Z,47.58
2019-03-31T04:35:31.247Z,47.58
2019-03-31T04:36:31.248Z,47.47
2019-03-31T04:37:31.223Z,47.47
2019-03-31T04:38:31.237Z,47.47
2019-03-31T04:39:31.313Z,47.47
2019-03-31T04:40:31.189Z,47.38
2019-03-31T04:41:31.184Z,47.38
2019-03-31T04:42:31.170Z,47.38
2019-03-31T04:43:31.180Z,47.35
2019-03-31T04:44:31.148Z,47.35
2019-03-31T04:45:31.147Z,47.25
2019-03-31T04:46:31.133Z,47.25
2019-03-31T04:47:31.121Z,47.25
2019-03-31T04:48:31.155Z,47.25
2019-03-31T04:49:31.104Z,47.25
2019-03-31T04:50:31.095Z,47.25
2019-03-31T04:51:31.073Z,47.25
2019-03-31T04:52:31.069Z,47.25
2019-03-31T04:53:31.051Z,47.25
2019-03-31T04:54:31.063Z,47.25
2019-03-31T04:55:31.038Z,47.25
2019-03-31T04:56:31.045Z,47.25
2019-03-31T04:57:31.012Z,47.25
2019-03-31T04:58:31.004Z,47.25
2019-03-31T04:59:31.031Z,47.25
2019-03-31T05:00:30.983Z,47.25
2019-03-31T05:01:30.981Z,47.25
2019-03-31T05:02:30.968Z,47.25
2019-03-31T05:03:30.946Z,47.25
2019-03-31T05:04:30.946Z,47.25
2019-03-31T05:05:30.955Z,47.25
2019-03-31T05:06:30.917Z,47.35
2019-03-31T05:07:30.912Z,47.35
2019-03-31T05:08:30.899Z,47.35
2019-03-31T05:09:30.910Z,47.35
2019-03-31T05:10:30.898Z,47.35
2019-03-31T05:11:30.865Z,47.35
2019-03-31T05:12:30.852Z,47.35
2019-03-31T05:13:30.841Z,47.35
2019-03-31T05:14:30.856Z,47.35
2019-03-31T05:15:30.847Z,47.38
2019-03-31T05:16:30.815Z,47.38
2019-03-31T05:17:30.801Z,47.38
2019-03-31T05:18:30.788Z,47.38
2019-03-31T05:19:30.780Z,47.38
2019-03-31T05:20:30.794Z,47.38
2019-03-31T05:21:30.759Z,47.38
2019-03-31T05:22:30.762Z,47.38
2019-03-31T05:23:30.738Z,47.38
2019-03-31T05:24:30.733Z,47.38
2019-03-31T05:25:30.740Z,47.38
2019-03-31T05:26:30.703Z,47.47
2019-03-31T05:27:30.694Z,47.47
2019-03-31T05:28:30.702Z,47.47
2019-03-31T05:29:30.675Z,47.47
2019-03-31T05:30:30.664Z,47.47
2019-03-31T05:31:30.669Z,47.47
2019-03-31T05:32:30.658Z,47.47
2019-03-31T05:33:30.633Z,47.47
2019-03-31T05:34:30.621Z,47.47
2019-03-31T05:35:30.609Z,47.47
2019-03-31T05:36:30.616Z,47.47
2019-03-31T05:37:30.585Z,47.47
2019-03-31T05:38:30.577Z,47.58
2019-03-31T05:39:30.568Z,47.47
2019-03-31T05:40:30.968Z,47.58
2019-03-31T05:41:30.564Z,47.58
2019-03-31T05:42:30.578Z,47.58
2019-03-31T05:43:30.525Z,47.58
2019-03-31T05:44:30.514Z,47.58
2019-03-31T05:45:30.504Z,47.58
2019-03-31T05:46:30.490Z,47.58
2019-03-31T05:47:30.484Z,47.58
2019-03-31T05:48:30.500Z,47.58
2019-03-31T05:49:30.463Z,47.58
2019-03-31T05:50:30.455Z,47.58
2019-03-31T05:51:30.442Z,47.58
2019-03-31T05:52:30.432Z,47.58
2019-03-31T05:53:30.443Z,47.58
2019-03-31T05:54:30.406Z,47.58
2019-03-31T05:55:30.403Z,47.58
2019-03-31T05:56:30.390Z,47.58
2019-03-31T05:57:30.374Z,47.58
2019-03-31T05:58:30.582Z,47.58
2019-03-31T05:59:30.359Z,47.58
2019-03-31T06:00:30.350Z,47.58
2019-03-31T06:01:30.339Z,47.58
2019-03-31T06:02:30.325Z,47.58
2019-03-31T06:03:30.315Z,47.58
2019-03-31T06:04:33.313Z,47.58
2019-03-31T06:05:30.320Z,47.58
2019-03-31T06:06:30.284Z,47.47
2019-03-31T06:07:30.279Z,47.47
2019-03-31T06:08:30.264Z,47.47
2019-03-31T06:09:30.269Z,47.47
2019-03-31T06:10:30.246Z,47.47
2019-03-31T06:11:30.233Z,47.47
2019-03-31T06:12:30.221Z,47.47
2019-03-31T06:13:30.212Z,47.47
2019-03-31T06:14:30.223Z,47.47
2019-03-31T06:15:30.194Z,47.47
2019-03-31T06:16:30.181Z,47.47
2019-03-31T06:17:30.172Z,47.47
2019-03-31T06:18:30.202Z,47.47
2019-03-31T06:19:30.144Z,47.47
2019-03-31T06:20:30.176Z,47.47
2019-03-31T06:21:30.125Z,47.47
2019-03-31T06:22:30.118Z,47.47
2019-03-31T06:23:30.109Z,47.47
2019-03-31T06:24:30.092Z,47.47
2019-03-31T06:25:30.096Z,47.47
2019-03-31T06:26:30.094Z,47.47
2019-03-31T06:27:30.064Z,47.47
2019-03-31T06:28:30.069Z,47.47
2019-03-31T06:29:30.045Z,47.47
2019-03-31T06:30:30.241Z,47.38
2019-03-31T06:31:30.021Z,47.38
2019-03-31T06:32:30.011Z,47.38
2019-03-31T06:33:29.998Z,47.38
2019-03-31T06:34:29.991Z,47.38
2019-03-31T06:35:29.975Z,47.38
2019-03-31T06:36:29.983Z,47.38
2019-03-31T06:37:29.956Z,47.38
2019-03-31T06:38:29.945Z,47.38
2019-03-31T06:39:29.937Z,47.38
2019-03-31T06:40:29.923Z,47.38
2019-03-31T06:41:29.947Z,47.38
2019-03-31T06:42:29.902Z,47.38
2019-03-31T06:43:29.893Z,47.38
2019-03-31T06:44:29.882Z,47.38
2019-03-31T06:45:29.896Z,47.38
2019-03-31T06:46:29.860Z,47.38
2019-03-31T06:47:29.871Z,47.38
2019-03-31T06:48:29.848Z,47.38
2019-03-31T06:49:29.833Z,47.38
2019-03-31T06:50:29.818Z,47.38
2019-03-31T06:51:29.846Z,47.38
2019-03-31T06:52:29.801Z,47.38
2019-03-31T06:53:29.786Z,47.38
2019-03-31T06:54:29.778Z,47.38
2019-03-31T06:55:29.766Z,47.38
2019-03-31T06:56:29.755Z,47.38
2019-03-31T06:57:29.774Z,47.38
2019-03-31T06:58:29.733Z,47.38
2019-03-31T06:59:29.728Z,47.38
2019-03-31T07:00:29.710Z,47.38
2019-03-31T07:01:29.741Z,47.38
2019-03-31T07:02:29.696Z,47.27
2019-03-31T07:03:29.699Z,47.27
2019-03-31T07:04:29.670Z,47.27
2019-03-31T07:05:29.664Z,47.27
2019-03-31T07:06:29.649Z,47.27
2019-03-31T07:07:29.644Z,47.27
2019-03-31T07:08:29.648Z,47.27
2019-03-31T07:09:29.615Z,47.27
2019-03-31T07:10:29.607Z,47.27
2019-03-31T07:11:29.594Z,47.27
2019-03-31T07:12:29.609Z,47.27
2019-03-31T07:13:29.598Z,47.27
2019-03-31T07:14:29.577Z,47.27
2019-03-31T07:15:29.559Z,47.27
2019-03-31T07:16:29.545Z,47.27
2019-03-31T07:17:29.539Z,47.27
2019-03-31T07:18:29.541Z,47.27
2019-03-31T07:19:29.514Z,47.27
2019-03-31T07:20:29.506Z,47.27
2019-03-31T07:21:29.495Z,47.27
2019-03-31T07:22:29.480Z,47.27
2019-03-31T07:23:29.691Z,47.27
2019-03-31T07:24:29.475Z,47.27
2019-03-31T07:25:29.452Z,47.27
2019-03-31T07:26:29.440Z,47.27
2019-03-31T07:27:29.430Z,47.27
2019-03-31T07:28:29.417Z,47.27
2019-03-31T07:29:29.429Z,47.17
2019-03-31T07:30:29.402Z,47.27
2019-03-31T07:31:29.391Z,47.27
2019-03-31T07:32:29.380Z,47.17
2019-03-31T07:33:29.389Z,47.17
2019-03-31T07:34:29.399Z,47.17
2019-03-31T07:35:29.347Z,47.17
2019-03-31T07:36:29.337Z,47.17
2019-03-31T07:37:29.325Z,47.17
2019-03-31T07:38:38.849Z,47.17
2019-03-31T07:39:30.462Z,47.17
2019-03-31T07:40:29.287Z,47.17
2019-03-31T07:41:29.281Z,47.17
2019-03-31T07:42:29.345Z,47.17
2019-03-31T07:43:29.264Z,47.17
2019-03-31T07:44:29.293Z,47.07
2019-03-31T07:45:29.273Z,47.07
2019-03-31T07:46:29.234Z,47.17
2019-03-31T07:47:29.224Z,47.17
2019-03-31T07:48:29.211Z,47.07
2019-03-31T07:49:29.193Z,47.07
2019-03-31T07:50:29.189Z,47.07
2019-03-31T07:51:29.209Z,47.17
2019-03-31T07:52:29.170Z,47.07
2019-03-31T07:53:29.160Z,47.07
2019-03-31T07:54:29.147Z,47.07
2019-03-31T07:55:29.130Z,47.07
2019-03-31T07:56:29.122Z,47.07
2019-03-31T07:57:29.142Z,47.07
2019-03-31T07:58:29.148Z,47.07
2019-03-31T07:59:29.095Z,47.07
2019-03-31T08:00:29.082Z,47.07
2019-03-31T08:01:29.071Z,47.07
2019-03-31T08:02:29.062Z,47.07
2019-03-31T08:03:29.065Z,47.07
2019-03-31T08:04:29.042Z,47.07
2019-03-31T08:05:33.439Z,47.07
2019-03-31T08:06:30.032Z,47.07
2019-03-31T08:07:29.029Z,46.97
2019-03-31T08:08:29.217Z,46.97
2019-03-31T08:09:28.984Z,46.97
2019-03-31T08:10:28.991Z,46.97
2019-03-31T08:11:28.968Z,46.97
2019-03-31T08:12:28.954Z,46.97
2019-03-31T08:13:28.943Z,47.07
2019-03-31T08:14:28.948Z,46.97
2019-03-31T08:15:28.920Z,46.97
2019-03-31T08:16:28.907Z,46.97
2019-03-31T08:17:28.920Z,47.07
2019-03-31T08:18:28.892Z,47.07
2019-03-31T08:19:28.898Z,47.07
2019-03-31T08:20:28.884Z,47.07
2019-03-31T08:21:28.883Z,47.07
2019-03-31T08:22:28.847Z,47.07
2019-03-31T08:23:28.838Z,46.97
2019-03-31T08:24:28.827Z,47.07
2019-03-31T08:25:28.838Z,47.07
2019-03-31T08:26:28.843Z,47.07
2019-03-31T08:27:28.793Z,47.07
2019-03-31T08:28:28.783Z,47.07
2019-03-31T08:29:28.771Z,47.07
2019-03-31T08:30:28.764Z,47.07
2019-03-31T08:31:28.792Z,47.07
2019-03-31T08:32:28.767Z,47.07
2019-03-31T08:33:28.738Z,47.07
2019-03-31T08:34:28.720Z,47.07
2019-03-31T08:35:28.708Z,47.07
2019-03-31T08:36:28.695Z,47.07
2019-03-31T08:37:28.709Z,46.97
2019-03-31T08:38:28.678Z,47.07
2019-03-31T08:39:28.667Z,47.07
2019-03-31T08:40:28.658Z,46.97
2019-03-31T08:41:28.649Z,46.97
2019-03-31T08:42:28.659Z,47.07
2019-03-31T08:43:28.637Z,47.07
2019-03-31T08:44:28.613Z,47.07
2019-03-31T08:45:30.354Z,46.97
2019-03-31T08:46:28.596Z,46.97
2019-03-31T08:47:28.603Z,46.97
2019-03-31T08:48:28.601Z,46.97
2019-03-31T08:49:28.562Z,46.97
2019-03-31T08:50:28.552Z,46.97
2019-03-31T08:51:28.538Z,46.97
2019-03-31T08:52:28.525Z,46.97
2019-03-31T08:53:28.522Z,46.97
2019-03-31T08:54:28.529Z,46.97
2019-03-31T08:55:28.499Z,46.97
2019-03-31T08:56:28.483Z,46.97
2019-03-31T08:57:28.480Z,46.97
2019-03-31T08:58:28.467Z,46.97
2019-03-31T08:59:28.483Z,46.97
2019-03-31T09:00:28.454Z,46.97
2019-03-31T09:01:28.457Z,46.97
2019-03-31T09:02:28.441Z,46.97
2019-03-31T09:03:28.416Z,46.97
2019-03-31T09:04:28.426Z,46.97
2019-03-31T09:05:28.395Z,46.97
2019-03-31T09:06:28.384Z,46.97
2019-03-31T09:07:28.382Z,46.97
2019-03-31T09:08:28.364Z,46.87
2019-03-31T09:09:28.378Z,46.97
2019-03-31T09:10:28.338Z,46.97
2019-03-31T09:11:28.329Z,46.87
2019-03-31T09:12:28.317Z,46.87
2019-03-31T09:13:28.303Z,46.87
2019-03-31T09:14:28.298Z,46.87
2019-03-31T09:15:28.308Z,46.87
2019-03-31T09:16:28.296Z,46.87
2019-03-31T09:17:28.262Z,46.87
2019-03-31T09:18:28.258Z,46.87
2019-03-31T09:19:28.268Z,46.87
2019-03-31T09:20:28.232Z,46.87
2019-03-31T09:21:28.226Z,46.87
2019-03-31T09:22:28.215Z,46.87
2019-03-31T09:23:28.205Z,46.87
2019-03-31T09:24:28.216Z,46.87
2019-03-31T09:25:28.187Z,46.87
2019-03-31T09:26:28.216Z,46.87
2019-03-31T09:27:28.190Z,46.87
2019-03-31T09:28:28.152Z,46.87
2019-03-31T09:29:28.152Z,46.87
2019-03-31T09:30:28.130Z,46.87
2019-03-31T09:31:28.116Z,46.87
2019-03-31T09:32:28.108Z,46.87
2019-03-31T09:33:28.159Z,46.87
2019-03-31T09:34:28.088Z,46.87
2019-03-31T09:35:28.077Z,46.77
2019-03-31T09:36:28.067Z,46.87
2019-03-31T09:37:28.055Z,46.77
2019-03-31T09:38:28.067Z,46.77
2019-03-31T09:39:28.053Z,46.87
2019-03-31T09:40:28.021Z,46.87
2019-03-31T09:41:28.008Z,46.87
2019-03-31T09:42:28.008Z,46.77
2019-03-31T09:43:28.033Z,46.77
2019-03-31T09:44:30.258Z,46.87
2019-03-31T09:45:27.968Z,46.77
2019-03-31T09:46:27.958Z,46.77
2019-03-31T09:47:27.950Z,46.77
2019-03-31T09:48:27.938Z,46.77
2019-03-31T09:49:27.962Z,46.77
2019-03-31T09:50:27.915Z,46.77
2019-03-31T09:51:27.902Z,46.77
2019-03-31T09:52:27.903Z,46.77
2019-03-31T09:53:27.922Z,46.77
2019-03-31T09:54:27.875Z,46.77
2019-03-31T09:55:27.868Z,46.77
2019-03-31T09:56:27.854Z,46.77
2019-03-31T09:57:27.845Z,46.77
2019-03-31T09:58:27.836Z,46.77
2019-03-31T09:59:27.842Z,46.67
2019-03-31T10:00:28.038Z,46.77
2019-03-31T10:01:27.803Z,46.77
2019-03-31T10:02:27.800Z,46.77
2019-03-31T10:03:27.777Z,46.77
2019-03-31T10:04:27.767Z,46.77
2019-03-31T10:05:27.761Z,46.77
2019-03-31T10:06:30.639Z,46.77
2019-03-31T10:07:27.741Z,46.77
2019-03-31T10:08:27.726Z,46.77
2019-03-31T10:09:27.715Z,46.77
2019-03-31T10:10:27.705Z,46.77
2019-03-31T10:11:27.722Z,46.77
2019-03-31T10:12:27.682Z,46.77
2019-03-31T10:13:27.674Z,46.77
2019-03-31T10:14:27.663Z,46.77
2019-03-31T10:15:27.651Z,46.77
2019-03-31T10:16:27.862Z,46.77
2019-03-31T10:17:27.629Z,46.77
2019-03-31T10:18:27.624Z,46.77
2019-03-31T10:19:27.607Z,46.77
2019-03-31T10:20:31.149Z,46.77
2019-03-31T10:21:27.592Z,46.77
2019-03-31T10:22:27.595Z,46.77
2019-03-31T10:23:27.571Z,46.77
2019-03-31T10:24:27.556Z,46.77
2019-03-31T10:25:27.575Z,46.77
2019-03-31T10:26:32.030Z,46.77
2019-03-31T10:27:27.549Z,46.67
2019-03-31T10:28:27.511Z,46.77
2019-03-31T10:29:27.513Z,46.77
2019-03-31T10:30:27.495Z,46.77
2019-03-31T10:31:27.484Z,46.77
2019-03-31T10:32:27.495Z,46.77
2019-03-31T10:33:27.458Z,46.77
2019-03-31T10:34:27.455Z,46.77
2019-03-31T10:35:27.468Z,46.67
2019-03-31T10:36:27.433Z,46.67
2019-03-31T10:37:27.423Z,46.77
2019-03-31T10:38:27.426Z,46.67
2019-03-31T10:39:27.398Z,46.67
2019-03-31T10:40:27.385Z,46.67
2019-03-31T10:41:30.703Z,46.67
2019-03-31T10:42:27.370Z,46.67
2019-03-31T10:43:27.379Z,46.67
2019-03-31T10:44:27.348Z,46.67
2019-03-31T10:45:27.334Z,46.67
2019-03-31T10:46:27.323Z,46.77
2019-03-31T10:47:27.310Z,46.77
2019-03-31T10:48:27.364Z,46.67
2019-03-31T10:49:27.288Z,46.67
2019-03-31T10:50:27.278Z,46.77
2019-03-31T10:51:27.275Z,46.67
2019-03-31T10:52:27.261Z,46.67
2019-03-31T10:53:27.251Z,46.67
2019-03-31T10:54:27.262Z,46.67
2019-03-31T10:55:27.232Z,46.67
2019-03-31T10:56:27.217Z,46.67
2019-03-31T10:57:27.213Z,46.67
2019-03-31T10:58:27.213Z,46.67
2019-03-31T10:59:27.184Z,46.67
2019-03-31T11:00:27.205Z,46.67
2019-03-31T11:01:27.228Z,46.67
2019-03-31T11:02:27.150Z,46.67
2019-03-31T11:03:27.142Z,46.67
2019-03-31T11:04:27.140Z,46.67
2019-03-31T11:05:27.121Z,46.67
2019-03-31T11:06:27.137Z,46.67
2019-03-31T11:07:27.101Z,46.67
2019-03-31T11:08:27.090Z,46.67
2019-03-31T11:09:27.079Z,46.67
2019-03-31T11:10:27.073Z,46.67
2019-03-31T11:11:27.293Z,46.67
2019-03-31T11:12:27.047Z,46.67
2019-03-31T11:13:27.033Z,46.57
2019-03-31T11:14:27.025Z,46.57
2019-03-31T11:15:27.012Z,46.57
2019-03-31T11:16:27.006Z,46.57
2019-03-31T11:17:27.012Z,46.57
2019-03-31T11:18:26.991Z,46.57
2019-03-31T11:19:26.976Z,46.57
2019-03-31T11:20:26.966Z,46.57
2019-03-31T11:21:26.973Z,46.57
2019-03-31T11:22:26.937Z,46.57
2019-03-31T11:23:26.959Z,46.57
2019-03-31T11:24:26.921Z,46.57
2019-03-31T11:25:29.351Z,46.57
2019-03-31T11:26:26.898Z,46.57
2019-03-31T11:27:26.887Z,46.57
2019-03-31T11:28:26.902Z,46.57
2019-03-31T11:29:26.865Z,46.57
2019-03-31T11:30:26.858Z,46.57
2019-03-31T11:31:26.872Z,46.57
2019-03-31T11:32:26.837Z,46.57
2019-03-31T11:33:27.041Z,46.57
2019-03-31T11:34:26.813Z,46.57
2019-03-31T11:35:26.804Z,46.57
2019-03-31T11:36:26.797Z,46.57
2019-03-31T11:37:26.782Z,46.57
2019-03-31T11:38:26.773Z,46.57
2019-03-31T11:39:26.979Z,46.57
2019-03-31T11:40:26.755Z,46.57
2019-03-31T11:41:26.742Z,46.57
2019-03-31T11:42:26.728Z,46.57
2019-03-31T11:43:26.723Z,46.57
2019-03-31T11:44:27.834Z,46.57
2019-03-31T11:45:26.719Z,46.57
2019-03-31T11:46:26.691Z,46.57
2019-03-31T11:47:26.675Z,46.57
2019-03-31T11:48:26.670Z,46.57
2019-03-31T11:49:26.652Z,46.57
2019-03-31T11:50:26.666Z,46.57
2019-03-31T11:51:26.638Z,46.57
2019-03-31T11:52:26.631Z,46.57
2019-03-31T11:53:26.622Z,46.57
2019-03-31T11:54:26.616Z,46.57
2019-03-31T11:55:26.619Z,46.57
2019-03-31T11:56:26.579Z,46.55
2019-03-31T11:57:26.572Z,46.47
2019-03-31T11:58:26.560Z,46.45
2019-03-31T11:59:26.550Z,46.47
2019-03-31T12:00:26.566Z,46.47
2019-03-31T12:01:26.531Z,46.47
2019-03-31T12:02:27.719Z,46.45
2019-03-31T12:03:26.506Z,46.47
2019-03-31T12:04:26.520Z,46.47
2019-03-31T12:05:26.508Z,46.47
2019-03-31T12:06:26.503Z,46.37
2019-03-31T12:07:28.356Z,46.37
2019-03-31T12:08:26.454Z,46.35
2019-03-31T12:09:26.441Z,46.35
2019-03-31T12:10:26.435Z,46.37
2019-03-31T12:11:26.442Z,46.35
2019-03-31T12:12:26.410Z,46.37
2019-03-31T12:13:26.397Z,46.35
2019-03-31T12:14:26.396Z,46.35
2019-03-31T12:15:26.380Z,46.35
2019-03-31T12:16:26.420Z,46.37
2019-03-31T12:17:26.373Z,46.35
2019-03-31T12:18:26.354Z,46.35
2019-03-31T12:19:26.337Z,46.35
2019-03-31T12:20:26.331Z,46.35
2019-03-31T12:21:26.318Z,46.35
2019-03-31T12:22:26.525Z,46.35
2019-03-31T12:23:26.298Z,46.35
2019-03-31T12:24:26.284Z,46.35
2019-03-31T12:25:26.275Z,46.35
2019-03-31T12:26:26.276Z,46.35
2019-03-31T12:27:26.253Z,46.35
2019-03-31T12:28:26.265Z,46.35
2019-03-31T12:29:26.271Z,46.35
2019-03-31T12:30:26.222Z,46.35
2019-03-31T12:31:26.214Z,46.35
2019-03-31T12:32:26.198Z,46.35
2019-03-31T12:33:26.209Z,46.35
2019-03-31T12:34:26.175Z,46.35
2019-03-31T12:35:26.178Z,46.35
2019-03-31T12:36:26.184Z,46.35
2019-03-31T12:37:26.145Z,46.35
2019-03-31T12:38:26.163Z,46.35
2019-03-31T12:39:26.130Z,46.35
2019-03-31T12:40:26.118Z,46.35
2019-03-31T12:41:26.103Z,46.35
2019-03-31T12:42:26.097Z,46.35
2019-03-31T12:43:26.087Z,46.35
2019-03-31T12:44:26.097Z,46.35
2019-03-31T12:45:26.065Z,46.35
2019-03-31T12:46:26.052Z,46.25
2019-03-31T12:47:26.040Z,46.35
2019-03-31T12:48:26.032Z,46.35
2019-03-31T12:49:26.247Z,46.35
2019-03-31T12:50:26.013Z,46.35
2019-03-31T12:51:25.998Z,46.25
2019-03-31T12:52:25.999Z,46.25